createdAt,value
2019-05-25T00:00:31.530Z,0.00
2019-05-25T00:01:31.523Z,0.00
2019-05-25T00:02:31.537Z,0.00
2019-05-25T00:03:31.502Z,0.00
2019-05-25T00:04:31.503Z,0.00
2019-05-25T00:05:31.473Z,0.00
2019-05-25T00:06:31.465Z,0.00
2019-05-25T00:07:31.472Z,0.00
2019-05-25T00:08:31.446Z,0.00
2019-05-25T00:09:31.431Z,0.00
2019-05-25T00:10:31.418Z,0.00
2019-05-25T00:11:31.409Z,0.00
2019-05-25T00:12:31.409Z,0.00
2019-05-25T00:13:31.385Z,0.00
2019-05-25T00:14:31.373Z,0.00
2019-05-25T00:15:31.404Z,0.00
2019-05-25T00:16:31.351Z,0.00
2019-05-25T00:17:31.337Z,0.00
2019-05-25T00:18:31.325Z,0.00
2019-05-25T00:19:31.318Z,0.00
2019-05-25T00:20:31.303Z,0.00
2019-05-25T00:21:31.292Z,0.00
2019-05-25T00:22:31.300Z,0.00
2019-05-25T00:23:31.269Z,0.00
2019-05-25T00:24:31.265Z,0.00
2019-05-25T00:25:31.251Z,0.00
2019-05-25T00:26:31.257Z,0.00
2019-05-25T00:27:31.222Z,0.00
2019-05-25T00:28:31.211Z,0.00
2019-05-25T00:29:31.217Z,0.00
2019-05-25T00:30:31.189Z,0.00
2019-05-25T00:31:31.194Z,0.00
2019-05-25T00:32:31.169Z,0.00
2019-05-25T00:33:31.178Z,0.00
2019-05-25T00:34:31.156Z,0.00
2019-05-25T00:35:31.135Z,0.00
2019-05-25T00:36:31.131Z,0.00
2019-05-25T00:37:31.129Z,0.00
2019-05-25T00:38:31.099Z,0.00
2019-05-25T00:39:31.087Z,0.00
2019-05-25T00:40:31.075Z,0.00
2019-05-25T00:41:31.062Z,0.00
2019-05-25T00:42:31.069Z,0.00
2019-05-25T00:43:31.059Z,0.00
2019-05-25T00:44:31.029Z,0.00
2019-05-25T00:45:31.077Z,0.00
2019-05-25T00:46:31.005Z,0.00
2019-05-25T00:47:31.008Z,0.00
2019-05-25T00:48:30.999Z,0.00
2019-05-25T00:49:30.976Z,0.00
2019-05-25T00:50:30.966Z,0.00
2019-05-25T00:51:30.973Z,0.00
2019-05-25T00:52:30.939Z,0.00
2019-05-25T00:53:30.942Z,0.00
2019-05-25T00:54:30.918Z,0.00
2019-05-25T00:55:30.910Z,0.00
2019-05-25T00:56:30.918Z,0.00
2019-05-25T00:57:30.884Z,0.00
2019-05-25T00:58:30.875Z,0.00
2019-05-25T00:59:30.878Z,0.00
2019-05-25T01:00:30.853Z,0.00
2019-05-25T01:01:30.858Z,0.00
2019-05-25T01:02:30.866Z,0.00
2019-05-25T01:03:30.818Z,0.00
2019-05-25T01:04:30.807Z,0.00
2019-05-25T01:05:30.809Z,0.00
2019-05-25T01:06:30.783Z,0.00
2019-05-25T01:07:30.769Z,0.00
2019-05-25T01:08:30.765Z,0.00
2019-05-25T01:09:30.752Z,0.00
2019-05-25T01:10:30.737Z,0.00
2019-05-25T01:11:30.728Z,0.00
2019-05-25T01:12:30.713Z,0.00
2019-05-25T01:13:30.728Z,0.00
2019-05-25T01:14:30.710Z,0.00
2019-05-25T01:15:30.680Z,0.00
2019-05-25T01:16:30.679Z,0.00
2019-05-25T01:17:30.662Z,0.00
2019-05-25T01:18:30.652Z,0.00
2019-05-25T01:19:30.643Z,0.00
2019-05-25T01:20:30.621Z,0.00
2019-05-25T01:21:30.621Z,0.00
2019-05-25T01:22:30.619Z,0.00
2019-05-25T01:23:30.592Z,0.00
2019-05-25T01:24:43.254Z,0.00
2019-05-25T01:25:31.571Z,0.00
2019-05-25T01:26:30.558Z,0.00
2019-05-25T01:27:30.548Z,0.00
2019-05-25T01:28:30.531Z,0.00
2019-05-25T01:29:30.526Z,0.00
2019-05-25T01:30:30.515Z,0.00
2019-05-25T01:31:30.522Z,0.00
2019-05-25T01:32:30.494Z,0.00
2019-05-25T01:33:30.491Z,0.00
2019-05-25T01:34:30.481Z,0.00
2019-05-25T01:35:30.461Z,0.00
2019-05-25T01:36:30.448Z,0.00
2019-05-25T01:37:30.467Z,0.00
2019-05-25T01:38:30.416Z,0.00
2019-05-25T01:39:30.452Z,0.00
2019-05-25T01:40:30.405Z,0.00
2019-05-25T01:41:30.391Z,0.00
2019-05-25T01:42:30.400Z,0.00
2019-05-25T01:43:30.370Z,0.00
2019-05-25T01:44:30.407Z,0.00
2019-05-25T01:45:30.397Z,0.00
2019-05-25T01:46:30.358Z,0.00
2019-05-25T01:47:30.329Z,0.00
2019-05-25T01:48:30.320Z,0.00
2019-05-25T01:49:30.307Z,0.00
2019-05-25T01:50:30.299Z,0.00
2019-05-25T01:51:30.295Z,0.00
2019-05-25T01:52:30.274Z,0.00
2019-05-25T01:53:30.262Z,0.00
2019-05-25T01:54:30.257Z,0.00
2019-05-25T01:55:30.263Z,0.00
2019-05-25T01:56:30.249Z,0.00
2019-05-25T01:57:30.216Z,0.00
2019-05-25T01:58:30.202Z,0.00
2019-05-25T01:59:30.188Z,0.00
2019-05-25T02:00:30.194Z,0.00
2019-05-25T02:01:30.193Z,0.00
2019-05-25T02:02:30.158Z,0.00
2019-05-25T02:03:30.149Z,0.00
2019-05-25T02:04:30.141Z,0.00
2019-05-25T02:05:30.126Z,0.00
2019-05-25T02:06:30.132Z,4.00
2019-05-25T02:07:30.144Z,4.00
2019-05-25T02:08:30.095Z,4.00
2019-05-25T02:09:30.097Z,0.00
2019-05-25T02:10:30.070Z,0.00
2019-05-25T02:11:30.060Z,4.00
2019-05-25T02:12:30.061Z,4.00
2019-05-25T02:13:30.037Z,4.00
2019-05-25T02:14:30.027Z,4.00
2019-05-25T02:15:30.019Z,4.00
2019-05-25T02:16:30.006Z,4.00
2019-05-25T02:17:30.002Z,4.00
2019-05-25T02:18:29.993Z,4.00
2019-05-25T02:19:29.970Z,8.00
2019-05-25T02:20:29.979Z,8.00
2019-05-25T02:21:29.946Z,8.00
2019-05-25T02:22:29.942Z,8.00
2019-05-25T02:23:29.933Z,8.00
2019-05-25T02:24:29.952Z,12.00
2019-05-25T02:25:29.898Z,12.00
2019-05-25T02:26:29.890Z,16.00
2019-05-25T02:27:29.877Z,16.00
2019-05-25T02:28:29.874Z,16.00
2019-05-25T02:29:29.861Z,20.00
2019-05-25T02:30:29.849Z,24.00
2019-05-25T02:31:29.838Z,24.00
2019-05-25T02:32:29.823Z,28.00
2019-05-25T02:33:29.810Z,28.00
2019-05-25T02:34:29.805Z,32.00
2019-05-25T02:35:29.805Z,36.00
2019-05-25T02:36:29.776Z,40.00
2019-05-25T02:37:29.763Z,44.00
2019-05-25T02:38:29.753Z,52.00
2019-05-25T02:39:29.750Z,56.00
2019-05-25T02:40:29.737Z,64.00
2019-05-25T02:41:29.720Z,72.00
2019-05-25T02:42:29.714Z,84.00
2019-05-25T02:43:29.702Z,92.00
2019-05-25T02:44:29.684Z,104.00
2019-05-25T02:45:29.676Z,112.00
2019-05-25T02:46:29.680Z,128.00
2019-05-25T02:47:29.656Z,140.00
2019-05-25T02:48:29.645Z,156.00
2019-05-25T02:49:29.632Z,172.00
2019-05-25T02:50:29.616Z,188.00
2019-05-25T02:51:29.608Z,208.00
2019-05-25T02:52:29.622Z,224.00
2019-05-25T02:53:29.619Z,248.00
2019-05-25T02:54:29.578Z,268.00
2019-05-25T02:55:34.341Z,292.00
2019-05-25T02:56:30.560Z,316.00
2019-05-25T02:57:29.552Z,336.00
2019-05-25T02:58:29.526Z,364.00
2019-05-25T02:59:29.522Z,384.00
2019-05-25T03:00:29.504Z,416.00
2019-05-25T03:01:29.504Z,452.00
2019-05-25T03:02:29.487Z,488.00
2019-05-25T03:03:29.486Z,532.00
2019-05-25T03:04:29.461Z,576.00
2019-05-25T03:05:29.446Z,620.00
2019-05-25T03:06:29.464Z,664.00
2019-05-25T03:07:29.420Z,708.00
2019-05-25T03:08:29.426Z,768.00
2019-05-25T03:09:29.402Z,744.00
2019-05-25T03:10:29.396Z,780.00
2019-05-25T03:11:29.392Z,1196.00
2019-05-25T03:12:29.365Z,1336.00
2019-05-25T03:13:29.362Z,1120.00
2019-05-25T03:14:29.363Z,1036.00
2019-05-25T03:15:29.332Z,1072.00
2019-05-25T03:16:29.332Z,1120.00
2019-05-25T03:17:29.330Z,1176.00
2019-05-25T03:18:29.303Z,1240.00
2019-05-25T03:19:29.286Z,1300.00
2019-05-25T03:20:29.275Z,1376.00
2019-05-25T03:21:29.268Z,1472.00
2019-05-25T03:22:29.266Z,1680.00
2019-05-25T03:23:29.246Z,2044.00
2019-05-25T03:24:29.252Z,2516.00
2019-05-25T03:25:29.238Z,2716.00
2019-05-25T03:26:29.208Z,2704.00
2019-05-25T03:27:29.199Z,2636.00
2019-05-25T03:28:29.185Z,2872.00
2019-05-25T03:29:29.182Z,2820.00
2019-05-25T03:30:29.271Z,2976.00
2019-05-25T03:31:29.161Z,3092.00
2019-05-25T03:32:29.144Z,3848.00
2019-05-25T03:33:29.129Z,6512.00
2019-05-25T03:34:29.114Z,5856.00
2019-05-25T03:35:29.112Z,5652.00
2019-05-25T03:36:29.118Z,7392.00
2019-05-25T03:37:29.077Z,5808.00
2019-05-25T03:38:29.072Z,4484.00
2019-05-25T03:39:29.061Z,4236.00
2019-05-25T03:40:29.049Z,4440.00
2019-05-25T03:41:29.043Z,5004.00
2019-05-25T03:42:29.026Z,5488.00
2019-05-25T03:43:29.014Z,5812.00
2019-05-25T03:44:29.010Z,5884.00
2019-05-25T03:45:29.005Z,5348.00
2019-05-25T03:46:28.979Z,4780.00
2019-05-25T03:47:28.987Z,4292.00
2019-05-25T03:48:28.961Z,4336.00
2019-05-25T03:49:28.948Z,4504.00
2019-05-25T03:50:28.940Z,4764.00
2019-05-25T03:51:28.924Z,4672.00
2019-05-25T03:52:28.924Z,4464.00
2019-05-25T03:53:28.932Z,4276.00
2019-05-25T03:54:28.890Z,4192.00
2019-05-25T03:55:28.893Z,4528.00
2019-05-25T03:56:28.874Z,5100.00
2019-05-25T03:57:28.865Z,5120.00
2019-05-25T03:58:28.858Z,4388.00
2019-05-25T03:59:28.834Z,3708.00
2019-05-25T04:00:28.828Z,3868.00
2019-05-25T04:01:28.814Z,4444.00
2019-05-25T04:02:28.827Z,5076.00
2019-05-25T04:03:28.796Z,5720.00
2019-05-25T04:04:28.794Z,6352.00
2019-05-25T04:05:28.770Z,6048.00
2019-05-25T04:06:28.765Z,5668.00
2019-05-25T04:07:28.749Z,6484.00
2019-05-25T04:08:28.736Z,6700.00
2019-05-25T04:09:28.731Z,5952.00
2019-05-25T04:10:28.710Z,5620.00
2019-05-25T04:11:28.708Z,4568.00
2019-05-25T04:12:28.697Z,5364.00
2019-05-25T04:13:28.679Z,6216.00
2019-05-25T04:14:28.672Z,5884.00
2019-05-25T04:15:28.660Z,6552.00
2019-05-25T04:16:28.646Z,7484.00
2019-05-25T04:17:28.636Z,7708.00
2019-05-25T04:18:28.640Z,9032.00
2019-05-25T04:19:28.612Z,10828.00
2019-05-25T04:20:28.608Z,11544.00
2019-05-25T04:21:28.604Z,12532.00
2019-05-25T04:22:28.588Z,12584.00
2019-05-25T04:23:28.576Z,12188.00
2019-05-25T04:24:28.577Z,11784.00
2019-05-25T04:25:28.548Z,12340.00
2019-05-25T04:26:28.551Z,13864.00
2019-05-25T04:27:28.524Z,13796.00
2019-05-25T04:28:28.517Z,13772.00
2019-05-25T04:29:28.502Z,14432.00
2019-05-25T04:30:28.508Z,13244.00
2019-05-25T04:31:28.488Z,13472.00
2019-05-25T04:32:28.491Z,12508.00
2019-05-25T04:33:28.456Z,11608.00
2019-05-25T04:34:28.444Z,11380.00
2019-05-25T04:35:28.433Z,10060.00
2019-05-25T04:36:28.442Z,9412.00
2019-05-25T04:37:28.421Z,9424.00
2019-05-25T04:38:28.498Z,9324.00
2019-05-25T04:39:28.390Z,8920.00
2019-05-25T04:40:28.378Z,8456.00
2019-05-25T04:41:28.379Z,8040.00
2019-05-25T04:42:28.354Z,8380.00
2019-05-25T04:43:28.353Z,10588.00
2019-05-25T04:44:28.333Z,12748.00
2019-05-25T04:45:28.320Z,15552.00
2019-05-25T04:46:28.315Z,16640.00
2019-05-25T04:47:28.315Z,16544.00
2019-05-25T04:48:28.294Z,16320.00
2019-05-25T04:49:28.316Z,16544.00
2019-05-25T04:50:28.264Z,16384.00
2019-05-25T04:51:28.250Z,16288.00
2019-05-25T04:52:28.247Z,15904.00
2019-05-25T04:53:28.234Z,16736.00
2019-05-25T04:54:28.229Z,17344.00
2019-05-25T04:55:28.205Z,17440.00
2019-05-25T04:56:38.788Z,17536.00
2019-05-25T04:57:29.186Z,18496.00
2019-05-25T04:58:28.195Z,19072.00
2019-05-25T04:59:28.185Z,18976.00
2019-05-25T05:00:28.163Z,18400.00
2019-05-25T05:01:28.138Z,19040.00
2019-05-25T05:02:28.128Z,20032.00
2019-05-25T05:03:28.121Z,20512.00
2019-05-25T05:04:28.106Z,20864.00
2019-05-25T05:05:28.094Z,20832.00
2019-05-25T05:06:28.111Z,20896.00
2019-05-25T05:07:28.070Z,21120.00
2019-05-25T05:08:28.063Z,21280.00
2019-05-25T05:09:28.058Z,21088.00
2019-05-25T05:10:28.040Z,18720.00
2019-05-25T05:11:28.038Z,14340.00
2019-05-25T05:12:28.031Z,13028.00
2019-05-25T05:13:28.006Z,13116.00
2019-05-25T05:14:27.990Z,12832.00
2019-05-25T05:15:27.982Z,11236.00
2019-05-25T05:16:27.974Z,13268.00
2019-05-25T05:17:27.981Z,12668.00
2019-05-25T05:18:27.948Z,14092.00
2019-05-25T05:19:27.939Z,18368.00
2019-05-25T05:20:27.934Z,20480.00
2019-05-25T05:21:27.921Z,19840.00
2019-05-25T05:22:27.950Z,18272.00
2019-05-25T05:23:27.986Z,20640.00
2019-05-25T05:24:27.875Z,18144.00
2019-05-25T05:25:28.310Z,18336.00
2019-05-25T05:26:28.094Z,20352.00
2019-05-25T05:27:27.850Z,22752.00
2019-05-25T05:28:27.850Z,23744.00
2019-05-25T05:29:27.858Z,23424.00
2019-05-25T05:30:27.826Z,23392.00
2019-05-25T05:31:27.803Z,22528.00
2019-05-25T05:32:28.154Z,22176.00
2019-05-25T05:33:27.787Z,22848.00
2019-05-25T05:34:27.805Z,23136.00
2019-05-25T05:35:27.758Z,22496.00
2019-05-25T05:36:27.749Z,22432.00
2019-05-25T05:37:27.746Z,22304.00
2019-05-25T05:38:27.735Z,21920.00
2019-05-25T05:39:27.719Z,20288.00
2019-05-25T05:40:27.747Z,13084.00
2019-05-25T05:41:30.660Z,11084.00
2019-05-25T05:42:27.677Z,11288.00
2019-05-25T05:43:27.666Z,12160.00
2019-05-25T05:44:27.653Z,12184.00
2019-05-25T05:45:27.680Z,11852.00
2019-05-25T05:46:27.630Z,11592.00
2019-05-25T05:47:27.622Z,11188.00
2019-05-25T05:48:27.685Z,10852.00
2019-05-25T05:49:27.601Z,10432.00
2019-05-25T05:50:27.604Z,10096.00
2019-05-25T05:51:27.593Z,9828.00
2019-05-25T05:52:27.563Z,9496.00
2019-05-25T05:53:27.552Z,9248.00
2019-05-25T05:54:27.548Z,9260.00
2019-05-25T05:55:27.540Z,9024.00
2019-05-25T05:56:27.536Z,8648.00
2019-05-25T05:57:27.539Z,8484.00
2019-05-25T05:58:27.495Z,7320.00
2019-05-25T05:59:27.489Z,6144.00
2019-05-25T06:00:27.579Z,8160.00
2019-05-25T06:01:27.481Z,8208.00
2019-05-25T06:02:27.471Z,8012.00
2019-05-25T06:03:27.458Z,7492.00
2019-05-25T06:04:27.451Z,7676.00
2019-05-25T06:05:27.500Z,7388.00
2019-05-25T06:06:27.425Z,7412.00
2019-05-25T06:07:27.678Z,7876.00
2019-05-25T06:08:27.381Z,7688.00
2019-05-25T06:09:27.377Z,7340.00
2019-05-25T06:10:27.363Z,7716.00
2019-05-25T06:11:27.345Z,9196.00
2019-05-25T06:12:27.351Z,8408.00
2019-05-25T06:13:27.341Z,8556.00
2019-05-25T06:14:27.529Z,9688.00
2019-05-25T06:15:27.391Z,9448.00
2019-05-25T06:16:27.295Z,8696.00
2019-05-25T06:17:27.318Z,9420.00
2019-05-25T06:18:27.410Z,9988.00
2019-05-25T06:19:27.283Z,10180.00
2019-05-25T06:20:27.249Z,9824.00
2019-05-25T06:21:27.232Z,9712.00
2019-05-25T06:22:27.224Z,8268.00
2019-05-25T06:23:27.209Z,9000.00
2019-05-25T06:24:27.218Z,9320.00
2019-05-25T06:25:27.210Z,7744.00
2019-05-25T06:26:27.178Z,8152.00
2019-05-25T06:27:28.052Z,10644.00
2019-05-25T06:28:27.159Z,9540.00
2019-05-25T06:29:27.217Z,10052.00
2019-05-25T06:30:27.135Z,11488.00
2019-05-25T06:31:27.119Z,10488.00
2019-05-25T06:32:27.109Z,12400.00
2019-05-25T06:33:27.096Z,12400.00
2019-05-25T06:34:27.096Z,12876.00
2019-05-25T06:35:27.099Z,13528.00
2019-05-25T06:36:27.236Z,11848.00
2019-05-25T06:37:27.077Z,10704.00
2019-05-25T06:38:27.040Z,11816.00
2019-05-25T06:39:27.033Z,12264.00
2019-05-25T06:40:27.021Z,11424.00
2019-05-25T06:41:27.031Z,11280.00
2019-05-25T06:42:27.000Z,10864.00
2019-05-25T06:43:26.981Z,11832.00
2019-05-25T06:44:26.972Z,12204.00
2019-05-25T06:45:26.961Z,12564.00
2019-05-25T06:46:26.967Z,12184.00
2019-05-25T06:47:26.961Z,11776.00
2019-05-25T06:48:26.964Z,12604.00
2019-05-25T06:49:26.957Z,12980.00
2019-05-25T06:50:26.901Z,11596.00
2019-05-25T06:51:26.914Z,12556.00
2019-05-25T06:52:26.898Z,12260.00
2019-05-25T06:53:26.879Z,11740.00
2019-05-25T06:54:26.866Z,12236.00
2019-05-25T06:55:26.847Z,11864.00
2019-05-25T06:56:26.831Z,11820.00
2019-05-25T06:57:40.196Z,11216.00
2019-05-25T06:58:27.861Z,10160.00
2019-05-25T06:59:26.911Z,9984.00
2019-05-25T07:00:26.792Z,9840.00
2019-05-25T07:01:26.777Z,9548.00
2019-05-25T07:02:26.886Z,9972.00
2019-05-25T07:03:26.763Z,9472.00
2019-05-25T07:04:26.776Z,9316.00
2019-05-25T07:05:26.734Z,9236.00
2019-05-25T07:06:26.737Z,9908.00
2019-05-25T07:07:26.710Z,10000.00
2019-05-25T07:08:26.702Z,9472.00
2019-05-25T07:09:26.690Z,10536.00
2019-05-25T07:10:26.671Z,10432.00
2019-05-25T07:11:26.671Z,8772.00
2019-05-25T07:12:26.656Z,8392.00
2019-05-25T07:13:28.604Z,8160.00
2019-05-25T07:14:26.655Z,7960.00
2019-05-25T07:15:26.765Z,8068.00
2019-05-25T07:16:26.653Z,8340.00
2019-05-25T07:17:26.596Z,7828.00
2019-05-25T07:18:26.588Z,7464.00
2019-05-25T07:19:26.590Z,8604.00
2019-05-25T07:20:26.577Z,10536.00
2019-05-25T07:21:26.709Z,10376.00
2019-05-25T07:22:26.545Z,10568.00
2019-05-25T07:23:26.535Z,9284.00
2019-05-25T07:24:26.524Z,8468.00
2019-05-25T07:25:26.826Z,7960.00
2019-05-25T07:26:26.493Z,7704.00
2019-05-25T07:27:26.492Z,7964.00
2019-05-25T07:28:26.475Z,7924.00
2019-05-25T07:29:26.462Z,9272.00
2019-05-25T07:30:26.460Z,10328.00
2019-05-25T07:31:26.440Z,9972.00
2019-05-25T07:32:26.450Z,9172.00
2019-05-25T07:33:26.421Z,10248.00
2019-05-25T07:34:26.408Z,9216.00
2019-05-25T07:35:26.397Z,7188.00
2019-05-25T07:36:26.402Z,6984.00
2019-05-25T07:37:26.390Z,7252.00
2019-05-25T07:38:26.358Z,7216.00
2019-05-25T07:39:26.532Z,7508.00
2019-05-25T07:40:26.525Z,8080.00
2019-05-25T07:41:26.326Z,7648.00
2019-05-25T07:42:26.359Z,7204.00
2019-05-25T07:43:26.509Z,6888.00
2019-05-25T07:44:26.296Z,6564.00
2019-05-25T07:45:26.283Z,6452.00
2019-05-25T07:46:26.538Z,6752.00
2019-05-25T07:47:26.259Z,6600.00
2019-05-25T07:48:26.453Z,6392.00
2019-05-25T07:49:26.251Z,6280.00
2019-05-25T07:50:26.237Z,6596.00
2019-05-25T07:51:26.209Z,6452.00
2019-05-25T07:52:26.213Z,6524.00
2019-05-25T07:53:26.202Z,7576.00
2019-05-25T07:54:26.418Z,8488.00
2019-05-25T07:55:26.177Z,8336.00
2019-05-25T07:56:26.181Z,8300.00
2019-05-25T07:57:28.609Z,7984.00
2019-05-25T07:58:26.135Z,7924.00
2019-05-25T07:59:26.145Z,7932.00
2019-05-25T08:00:26.127Z,7776.00
2019-05-25T08:01:26.141Z,7444.00
2019-05-25T08:02:26.087Z,7348.00
2019-05-25T08:03:26.076Z,6636.00
2019-05-25T08:04:26.075Z,6228.00
2019-05-25T08:05:26.059Z,6312.00
2019-05-25T08:06:26.051Z,5964.00
2019-05-25T08:07:26.034Z,5948.00
2019-05-25T08:08:26.019Z,6688.00
2019-05-25T08:09:26.009Z,7240.00
2019-05-25T08:10:25.999Z,8528.00
2019-05-25T08:11:25.987Z,9952.00
2019-05-25T08:12:25.975Z,9324.00
2019-05-25T08:13:26.018Z,8616.00
2019-05-25T08:14:26.005Z,8040.00
2019-05-25T08:15:26.006Z,8136.00
2019-05-25T08:16:25.989Z,7364.00
2019-05-25T08:17:25.919Z,7180.00
2019-05-25T08:18:25.909Z,6836.00
2019-05-25T08:19:25.891Z,6256.00
2019-05-25T08:20:25.893Z,6080.00
2019-05-25T08:21:25.869Z,6060.00
2019-05-25T08:22:25.918Z,6428.00
2019-05-25T08:23:25.862Z,6924.00
2019-05-25T08:24:25.865Z,7116.00
2019-05-25T08:25:25.835Z,7748.00
2019-05-25T08:26:25.833Z,7636.00
2019-05-25T08:27:25.799Z,7516.00
2019-05-25T08:28:32.665Z,6984.00
2019-05-25T08:29:26.798Z,6432.00
2019-05-25T08:30:25.895Z,6360.00
2019-05-25T08:31:25.767Z,6288.00
2019-05-25T08:32:25.771Z,6984.00
2019-05-25T08:33:25.736Z,7268.00
2019-05-25T08:34:25.721Z,6900.00
2019-05-25T08:35:25.713Z,6744.00
2019-05-25T08:36:25.707Z,6956.00
2019-05-25T08:37:25.713Z,6808.00
2019-05-25T08:38:25.679Z,6308.00
2019-05-25T08:39:25.671Z,6112.00
2019-05-25T08:40:25.653Z,5984.00
2019-05-25T08:41:25.643Z,5724.00
2019-05-25T08:42:25.636Z,5864.00
2019-05-25T08:43:25.643Z,5952.00
2019-05-25T08:44:25.610Z,6036.00
2019-05-25T08:45:26.203Z,6936.00
2019-05-25T08:46:25.623Z,8736.00
2019-05-25T08:47:25.593Z,10400.00
2019-05-25T08:48:25.575Z,12392.00
2019-05-25T08:49:25.551Z,13284.00
2019-05-25T08:50:37.690Z,13288.00
2019-05-25T08:51:26.529Z,13576.00
2019-05-25T08:52:25.517Z,13544.00
2019-05-25T08:53:39.990Z,13124.00
2019-05-25T08:54:26.496Z,14376.00
2019-05-25T08:55:25.484Z,15072.00
2019-05-25T08:56:25.486Z,15644.00
2019-05-25T08:57:25.471Z,16544.00
2019-05-25T08:58:25.611Z,16832.00
2019-05-25T08:59:25.521Z,15400.00
2019-05-25T09:00:25.626Z,14408.00
2019-05-25T09:01:25.419Z,13884.00
2019-05-25T09:02:25.485Z,12980.00
2019-05-25T09:03:25.517Z,11420.00
2019-05-25T09:04:25.771Z,10104.00
2019-05-25T09:05:25.405Z,9704.00
2019-05-25T09:06:25.428Z,8812.00
2019-05-25T09:07:25.602Z,8248.00
2019-05-25T09:08:25.341Z,8108.00
2019-05-25T09:09:25.454Z,7928.00
2019-05-25T09:10:25.319Z,8392.00
2019-05-25T09:11:25.317Z,8220.00
2019-05-25T09:12:25.855Z,8692.00
2019-05-25T09:13:25.283Z,7564.00
2019-05-25T09:14:25.274Z,7660.00
2019-05-25T09:15:25.286Z,8452.00
2019-05-25T09:16:25.259Z,8996.00
2019-05-25T09:17:25.241Z,8700.00
2019-05-25T09:18:25.266Z,8348.00
2019-05-25T09:19:25.215Z,8832.00
2019-05-25T09:20:25.205Z,8792.00
2019-05-25T09:21:25.193Z,8588.00
2019-05-25T09:22:25.193Z,8316.00
2019-05-25T09:23:25.177Z,8772.00
2019-05-25T09:24:25.208Z,9884.00
2019-05-25T09:25:25.145Z,11428.00
2019-05-25T09:26:25.135Z,11548.00
2019-05-25T09:27:25.247Z,10304.00
2019-05-25T09:28:25.195Z,9680.00
2019-05-25T09:29:25.097Z,10968.00
2019-05-25T09:30:25.090Z,10644.00
2019-05-25T09:31:25.077Z,9936.00
2019-05-25T09:32:25.069Z,9332.00
2019-05-25T09:33:25.067Z,9456.00
2019-05-25T09:34:25.045Z,9096.00
2019-05-25T09:35:25.033Z,8976.00
2019-05-25T09:36:25.023Z,9500.00
2019-05-25T09:37:25.117Z,9520.00
2019-05-25T09:38:25.007Z,9588.00
2019-05-25T09:39:25.011Z,10064.00
2019-05-25T09:40:25.055Z,9888.00
2019-05-25T09:41:24.991Z,10000.00
2019-05-25T09:42:24.959Z,9368.00
2019-05-25T09:43:24.942Z,8444.00
2019-05-25T09:44:24.946Z,7580.00
2019-05-25T09:45:24.920Z,7648.00
2019-05-25T09:46:24.910Z,7912.00
2019-05-25T09:47:24.903Z,8040.00
2019-05-25T09:48:24.887Z,8048.00
2019-05-25T09:49:24.941Z,8288.00
2019-05-25T09:50:24.881Z,10064.00
2019-05-25T09:51:24.853Z,11388.00
2019-05-25T09:52:24.842Z,12396.00
2019-05-25T09:53:24.832Z,12432.00
2019-05-25T09:54:24.819Z,12568.00
2019-05-25T09:55:24.811Z,13916.00
2019-05-25T09:56:24.797Z,13884.00
2019-05-25T09:57:24.835Z,13588.00
2019-05-25T09:58:24.791Z,13176.00
2019-05-25T09:59:24.781Z,12320.00
2019-05-25T10:00:24.755Z,10956.00
2019-05-25T10:01:24.754Z,10460.00
2019-05-25T10:02:24.728Z,10176.00
2019-05-25T10:03:24.715Z,10632.00
2019-05-25T10:04:24.712Z,11700.00
2019-05-25T10:05:24.694Z,12180.00
2019-05-25T10:06:24.705Z,11680.00
2019-05-25T10:07:24.687Z,11176.00
2019-05-25T10:08:24.727Z,11320.00
2019-05-25T10:09:24.648Z,12344.00
2019-05-25T10:10:24.654Z,12844.00
2019-05-25T10:11:24.628Z,12600.00
2019-05-25T10:12:24.633Z,14696.00
2019-05-25T10:13:24.641Z,15480.00
2019-05-25T10:14:24.593Z,15164.00
2019-05-25T10:15:24.579Z,14048.00
2019-05-25T10:16:24.567Z,13420.00
2019-05-25T10:17:24.576Z,13404.00
2019-05-25T10:18:24.569Z,14440.00
2019-05-25T10:19:24.548Z,15232.00
2019-05-25T10:20:24.520Z,15068.00
2019-05-25T10:21:25.419Z,14192.00
2019-05-25T10:22:24.503Z,13564.00
2019-05-25T10:23:24.603Z,13312.00
2019-05-25T10:24:24.479Z,13680.00
2019-05-25T10:25:24.466Z,14280.00
2019-05-25T10:26:24.457Z,14880.00
2019-05-25T10:27:24.465Z,16252.00
2019-05-25T10:28:24.443Z,16092.00
2019-05-25T10:29:36.750Z,15784.00
2019-05-25T10:30:25.412Z,15228.00
2019-05-25T10:31:24.400Z,14192.00
2019-05-25T10:32:24.391Z,13676.00
2019-05-25T10:33:24.379Z,13292.00
2019-05-25T10:34:24.389Z,13516.00
2019-05-25T10:35:24.353Z,14188.00
2019-05-25T10:36:24.346Z,15316.00
2019-05-25T10:37:24.336Z,16036.00
2019-05-25T10:38:24.847Z,16512.00
2019-05-25T10:39:24.329Z,16060.00
2019-05-25T10:40:24.510Z,14660.00
2019-05-25T10:41:24.292Z,14340.00
2019-05-25T10:42:24.301Z,13964.00
2019-05-25T10:43:24.265Z,13244.00
2019-05-25T10:44:24.264Z,12560.00
2019-05-25T10:45:24.254Z,11912.00
2019-05-25T10:46:24.361Z,12128.00
2019-05-25T10:47:24.276Z,13240.00
2019-05-25T10:48:24.340Z,13920.00
2019-05-25T10:49:24.200Z,14612.00
2019-05-25T10:50:24.219Z,14992.00
2019-05-25T10:51:24.181Z,14844.00
2019-05-25T10:52:24.172Z,13892.00
2019-05-25T10:53:24.173Z,13928.00
2019-05-25T10:54:24.148Z,12820.00
2019-05-25T10:55:24.137Z,13072.00
2019-05-25T10:56:24.131Z,13520.00
2019-05-25T10:57:24.162Z,14236.00
2019-05-25T10:58:24.099Z,14208.00
2019-05-25T10:59:24.093Z,14932.00
2019-05-25T11:00:24.078Z,15104.00
2019-05-25T11:01:24.069Z,15764.00
2019-05-25T11:02:24.060Z,15708.00
2019-05-25T11:03:24.061Z,15688.00
2019-05-25T11:04:24.270Z,16672.00
2019-05-25T11:05:24.024Z,17376.00
2019-05-25T11:06:24.023Z,17504.00
2019-05-25T11:07:24.039Z,17568.00
2019-05-25T11:08:24.026Z,17024.00
2019-05-25T11:09:23.981Z,17440.00
2019-05-25T11:10:23.970Z,17440.00
2019-05-25T11:11:24.018Z,17728.00
2019-05-25T11:12:26.013Z,17568.00
2019-05-25T11:13:23.938Z,17632.00
2019-05-25T11:14:23.942Z,17824.00
2019-05-25T11:15:23.914Z,17856.00
2019-05-25T11:16:23.908Z,16512.00
2019-05-25T11:17:23.931Z,16704.00
2019-05-25T11:18:23.899Z,14920.00
2019-05-25T11:19:24.517Z,14992.00
2019-05-25T11:20:23.894Z,15584.00
2019-05-25T11:21:23.845Z,15708.00
2019-05-25T11:22:23.833Z,15168.00
2019-05-25T11:23:23.842Z,14396.00
2019-05-25T11:24:23.812Z,13732.00
2019-05-25T11:25:23.805Z,13772.00
2019-05-25T11:26:23.792Z,13696.00
2019-05-25T11:27:23.782Z,12800.00
2019-05-25T11:28:23.778Z,12156.00
2019-05-25T11:29:23.759Z,12384.00
2019-05-25T11:30:23.760Z,13488.00
2019-05-25T11:31:23.808Z,14652.00
2019-05-25T11:32:23.730Z,15076.00
2019-05-25T11:33:23.713Z,14724.00
2019-05-25T11:34:23.708Z,15284.00
2019-05-25T11:35:23.707Z,14664.00
2019-05-25T11:36:23.678Z,15352.00
2019-05-25T11:37:23.666Z,15340.00
2019-05-25T11:38:23.663Z,15328.00
2019-05-25T11:39:23.642Z,13620.00
2019-05-25T11:40:23.640Z,13120.00
2019-05-25T11:41:23.640Z,13160.00
2019-05-25T11:42:23.633Z,12640.00
2019-05-25T11:43:23.601Z,12652.00
2019-05-25T11:44:23.585Z,13528.00
2019-05-25T11:45:23.584Z,13964.00
2019-05-25T11:46:23.565Z,14308.00
2019-05-25T11:47:23.564Z,14368.00
2019-05-25T11:48:23.559Z,14528.00
2019-05-25T11:49:23.537Z,14168.00
2019-05-25T11:50:23.540Z,14636.00
2019-05-25T11:51:23.546Z,15116.00
2019-05-25T11:52:23.513Z,14696.00
2019-05-25T11:53:23.502Z,14624.00
2019-05-25T11:54:23.476Z,14580.00
2019-05-25T11:55:23.465Z,14232.00
2019-05-25T11:56:23.456Z,13824.00
2019-05-25T11:57:23.447Z,13620.00
2019-05-25T11:58:23.440Z,13892.00
2019-05-25T11:59:23.432Z,14436.00
2019-05-25T12:00:25.374Z,14484.00
2019-05-25T12:01:23.402Z,14888.00
2019-05-25T12:02:23.393Z,14356.00
2019-05-25T12:03:23.425Z,14140.00
2019-05-25T12:04:23.379Z,14340.00
2019-05-25T12:05:23.397Z,13784.00
2019-05-25T12:06:23.342Z,13728.00
2019-05-25T12:07:23.352Z,13396.00
2019-05-25T12:08:23.314Z,13496.00
2019-05-25T12:09:23.314Z,14092.00
2019-05-25T12:10:23.321Z,14516.00
2019-05-25T12:11:23.287Z,15212.00
2019-05-25T12:12:23.273Z,15060.00